Bluff Springs, Texas
Current Conditions -  °F | °C
As of 9:53 PM on Saturday 20 Dec 2014 (Local Time) from KAUS Reporting Station
Overcast Overcast  
Wind Chill: 51°   Ceiling: 2800
Heat Index: 51°   Visibility: 8mi
Dew Point: 47°   Wind: 6mph
Humidity: 86%   Direction: 40°NE
Pressure: 30.18"   Gusts: NA
Location:  30.1791°N, 97.7294°W
Report Text: KAUS 210353Z 04005KT 8SM OVC028 11/08 A3018 RMK AO2 SLP220 T01060083
Loading
Personal Weather Stations






























Interactive Weather Map New forecast layout! Learn more

10-Day Weather Forecast

Advertisements
Track Severe Weather on mobile